Time;durP1;ratioP1;P1;durP2;ratioP2;P2;SDS_P1;SDS_P2;PMS_P1;PMS_P2;Temp;Humidity;BMP_temperature;BMP_pressure;BME280_temperature;BME280_humidity;BME280_pressure;Samples;Min_cycle;Max_cycle;Signal;HPM_P1;HPM_P2
2024/03/05 00:04:12;;;;;;;68.90;36.40;;;;;;;5.80;93.21;97933.19;435651;1251;109035;-40
2024/03/05 00:24:25;;;;;;;53.90;29.80;;;;;;;5.60;93.62;97940.71;435434;1253;109065;-39
2024/03/05 00:34:32;;;;;;;45.90;27.70;;;;;;;5.54;93.72;97930.67;435406;1253;107196;-39
2024/03/05 00:44:39;;;;;;;49.00;28.00;;;;;;;5.44;94.35;97927.70;435514;1251;95271;-41
2024/03/05 00:54:46;;;;;;;58.90;32.00;;;;;;;5.43;94.66;97934.06;435673;1253;108814;-40
2024/03/05 01:04:53;;;;;;;58.80;32.20;;;;;;;5.47;94.60;97944.29;435487;1253;95243;-40
2024/03/05 01:15:01;;;;;;;70.70;35.10;;;;;;;5.49;94.59;97951.94;435549;1253;110121;-39
2024/03/05 01:25:07;;;;;;;71.50;36.50;;;;;;;5.42;94.58;97953.64;435372;1253;108761;-41
2024/03/05 01:35:16;;;;;;;64.60;34.90;;;;;;;5.41;94.82;97959.92;435630;1253;96519;-40
2024/03/05 01:45:23;;;;;;;64.00;30.90;;;;;;;5.45;94.63;97963.34;435472;1253;107720;-40
2024/03/05 01:55:31;;;;;;;77.50;39.00;;;;;;;5.33;94.61;97965.20;435511;1251;96227;-40
2024/03/05 02:05:39;;;;;;;88.00;38.70;;;;;;;5.20;94.77;97965.45;435505;1253;108286;-40
2024/03/05 02:27:07;;;;;;;56.20;31.30;;;;;;;5.10;94.69;97969.70;436093;1251;95603;-39
2024/03/05 02:37:20;;;;;;;55.50;28.50;;;;;;;5.10;94.77;97972.64;434297;1257;109047;-39
2024/03/05 02:47:27;;;;;;;53.40;27.20;;;;;;;5.04;94.93;97981.42;434334;1258;108128;-39
2024/03/05 02:57:34;;;;;;;52.10;28.70;;;;;;;4.97;95.10;97985.89;434651;1252;95539;-40
2024/03/05 03:07:43;;;;;;;49.60;28.20;;;;;;;4.86;95.28;98000.77;434475;1257;107346;-39
2024/03/05 03:17:51;;;;;;;52.30;29.90;;;;;;;4.80;95.56;98009.74;434685;1258;96242;-41
2024/03/05 03:48:11;;;;;;;54.40;27.00;;;;;;;4.83;95.47;98026.38;434563;1256;95891;-39
2024/03/05 03:58:18;;;;;;;57.90;29.10;;;;;;;4.82;95.45;98037.90;434691;1258;107334;-39
2024/03/05 04:08:25;;;;;;;65.60;31.80;;;;;;;4.73;95.70;98039.87;434606;1256;95295;-38
2024/03/05 04:18:32;;;;;;;62.70;32.50;;;;;;;4.64;95.67;98043.92;434715;1252;96111;-39
2024/03/05 04:28:48;;;;;;;62.30;32.40;;;;;;;4.63;95.63;98041.83;434199;1258;567162;-41
2024/03/05 04:38:56;;;;;;;51.70;26.10;;;;;;;4.59;95.74;98049.34;435383;1255;95662;-40
2024/03/05 04:49:06;;;;;;;42.90;23.30;;;;;;;4.57;95.64;98060.30;435394;1255;109286;-40
2024/03/05 04:59:13;;;;;;;45.70;24.20;;;;;;;4.49;95.72;98066.15;435210;1254;108251;-39
2024/03/05 05:19:26;;;;;;;58.10;32.00;;;;;;;4.58;95.77;98076.54;435357;1249;109552;-39
2024/03/05 05:29:33;;;;;;;64.70;34.00;;;;;;;4.51;95.76;98082.05;435135;1253;107991;-39
2024/03/05 05:39:48;;;;;;;48.80;25.20;;;;;;;4.45;95.68;98094.26;435412;1250;96022;-39
2024/03/05 05:49:55;;;;;;;50.30;26.70;;;;;;;4.37;95.63;98105.80;435400;1249;108870;-38
2024/03/05 06:10:10;;;;;;;45.50;25.90;;;;;;;4.44;95.91;98113.84;435358;1249;96252;-39
2024/03/05 06:20:17;;;;;;;49.70;26.00;;;;;;;4.48;95.95;98131.68;435382;1255;109393;-41
2024/03/05 06:30:25;;;;;;;75.30;32.60;;;;;;;4.46;95.98;98140.51;435463;1253;96137;-38
2024/03/05 06:40:35;;;;;;;64.40;33.60;;;;;;;4.37;96.09;98149.33;435479;1254;95688;-40
2024/03/05 06:50:42;;;;;;;49.20;25.90;;;;;;;4.40;95.97;98159.52;435360;1249;108309;-39
2024/03/05 07:00:49;;;;;;;51.00;28.60;;;;;;;4.43;95.96;98163.02;435247;1249;108050;-38
2024/03/05 07:10:57;;;;;;;47.40;25.60;;;;;;;4.49;95.86;98162.17;435290;1255;95453;-39
2024/03/05 07:31:10;;;;;;;44.60;23.80;;;;;;;4.51;96.02;98181.88;435339;1255;108033;-41
2024/03/05 07:41:18;;;;;;;62.40;31.70;;;;;;;4.52;96.09;98190.16;435499;1253;96116;-39
2024/03/05 07:51:40;;;;;;;69.10;31.80;;;;;;;4.54;96.17;98200.52;435353;1254;109021;-40
2024/03/05 08:01:51;;;;;;;46.40;23.60;;;;;;;4.60;96.01;98210.55;435362;1255;109476;-39
2024/03/05 08:11:59;;;;;;;43.10;21.70;;;;;;;4.84;96.01;98219.24;435317;1249;96146;-39
2024/03/05 08:22:05;;;;;;;46.50;23.90;;;;;;;5.04;95.88;98223.46;435356;1255;108436;-39
2024/03/05 08:32:12;;;;;;;51.20;26.40;;;;;;;5.03;95.83;98237.05;435475;1249;109917;-40
2024/03/05 08:42:19;;;;;;;52.80;28.80;;;;;;;5.07;95.96;98245.75;435339;1254;96524;-40
2024/03/05 08:52:26;;;;;;;38.00;22.40;;;;;;;5.05;95.69;98248.34;435303;1250;110080;-39
2024/03/05 09:02:34;;;;;;;37.00;20.50;;;;;;;5.05;95.53;98257.41;435093;1249;107631;-39
2024/03/05 09:22:48;;;;;;;42.90;24.30;;;;;;;4.99;95.44;98273.69;435494;1251;112078;-38
2024/03/05 09:43:04;;;;;;;43.40;24.10;;;;;;;4.97;95.19;98288.80;435332;1255;97865;-43
2024/03/05 10:03:18;;;;;;;41.30;20.40;;;;;;;5.15;95.48;98300.40;435377;1253;97229;-39
2024/03/05 10:13:24;;;;;;;40.10;23.50;;;;;;;5.20;95.28;98305.48;435403;1249;110638;-39
2024/03/05 10:23:31;;;;;;;36.40;23.00;;;;;;;5.12;95.25;98319.23;435390;1254;108836;-39
2024/03/05 10:33:37;;;;;;;28.30;16.70;;;;;;;5.18;95.34;98320.80;435384;1253;97341;-39
2024/03/05 10:43:46;;;;;;;32.80;19.00;;;;;;;5.29;95.04;98328.96;435347;1252;108993;-39
2024/03/05 10:53:53;;;;;;;22.30;14.60;;;;;;;5.47;95.01;98337.02;435446;1262;108763;-40
2024/03/05 11:04:03;;;;;;;29.80;17.50;;;;;;;5.72;95.04;98343.25;435282;1263;97902;-40
2024/03/05 11:14:11;;;;;;;26.90;17.10;;;;;;;5.98;94.76;98339.13;435464;1253;110145;-39
2024/03/05 11:24:21;;;;;;;22.90;16.10;;;;;;;6.14;94.31;98333.63;435449;1251;107669;-41
2024/03/05 11:34:30;;;;;;;22.10;14.90;;;;;;;6.27;93.91;98331.88;435402;1253;97900;-40
2024/03/05 11:44:55;;;;;;;20.50;13.70;;;;;;;6.64;93.80;98326.59;435409;1254;109720;-39
2024/03/05 12:05:05;;;;;;;29.90;19.90;;;;;;;7.38;93.11;98334.14;435396;1263;96595;-40
2024/03/05 12:25:28;;;;;;;29.20;20.40;;;;;;;6.95;92.12;98340.83;435454;1253;108476;-39
2024/03/05 12:35:36;;;;;;;29.20;19.70;;;;;;;6.96;91.49;98352.90;435391;1263;97877;-40
2024/03/05 12:45:42;;;;;;;32.80;20.10;;;;;;;7.02;91.55;98359.73;435325;1251;108732;-38
2024/03/05 12:55:59;;;;;;;29.20;19.80;;;;;;;7.06;91.25;98365.52;435379;1254;108939;-38
2024/03/05 13:06:07;;;;;;;31.90;18.90;;;;;;;6.99;90.83;98376.14;435427;1251;97906;-39
2024/03/05 13:16:14;;;;;;;31.30;21.40;;;;;;;6.99;90.49;98384.27;435151;1253;106951;-40
2024/03/05 13:26:22;;;;;;;29.00;19.00;;;;;;;6.92;90.33;98400.54;435223;1251;97890;-41
2024/03/05 13:36:29;;;;;;;31.00;20.30;;;;;;;6.88;90.36;98399.95;435430;1251;109546;-40
2024/03/05 13:56:45;;;;;;;38.20;20.40;;;;;;;6.55;89.23;98413.20;435467;1255;96684;-39
2024/03/05 14:06:52;;;;;;;31.40;19.20;;;;;;;6.38;88.82;98417.44;435330;1254;107356;-38
2024/03/05 14:16:59;;;;;;;34.10;22.10;;;;;;;6.33;88.97;98427.30;435295;1251;97902;-39
2024/03/05 14:27:06;;;;;;;32.30;19.00;;;;;;;6.08;88.35;98441.06;435110;1249;110090;-39
2024/03/05 14:37:13;;;;;;;30.30;18.30;;;;;;;5.99;88.53;98450.73;435214;1263;108208;-39
2024/03/05 14:47:20;;;;;;;33.10;20.50;;;;;;;5.93;88.70;98466.69;435403;1253;97249;-40
2024/03/05 14:57:28;;;;;;;37.50;19.80;;;;;;;5.69;88.60;98481.61;435513;1251;111055;-40
2024/03/05 15:07:35;;;;;;;36.60;20.40;;;;;;;5.57;88.53;98494.48;435205;1254;106748;-40
2024/03/05 15:17:43;;;;;;;41.60;25.20;;;;;;;5.53;88.76;98514.33;435235;1252;97938;-40
2024/03/05 15:27:51;;;;;;;37.70;23.50;;;;;;;5.50;88.84;98525.54;435297;1249;107864;-40
2024/03/05 15:38:09;;;;;;;43.00;21.70;;;;;;;5.34;88.84;98528.20;435398;1251;98514;-41
2024/03/05 15:48:16;;;;;;;39.10;22.60;;;;;;;5.29;88.82;98533.80;435549;1263;109877;-39
2024/03/05 16:18:52;;;;;;;41.00;22.70;;;;;;;5.20;88.91;98551.52;435270;1253;110200;-40
2024/03/05 16:49:13;;;;;;;41.50;23.40;;;;;;;4.80;88.86;98574.53;435480;1253;107340;-40
2024/03/05 16:59:20;;;;;;;41.40;26.10;;;;;;;4.55;88.93;98595.23;435266;1250;98018;-40
2024/03/05 17:19:34;;;;;;;37.00;21.10;;;;;;;3.92;88.37;98622.95;435276;1254;108441;-39
2024/03/05 17:29:42;;;;;;;35.70;24.20;;;;;;;3.66;88.18;98637.09;435468;1255;97468;-39
2024/03/05 17:49:56;;;;;;;82.00;42.60;;;;;;;3.09;88.30;98647.23;435416;1252;107470;-39
2024/03/05 18:30:24;;;;;;;148.20;67.10;;;;;;;2.37;88.42;98692.06;435523;1251;97889;-39
2024/03/05 19:00:46;;;;;;;150.20;72.20;;;;;;;1.77;88.49;98719.09;435295;1250;97883;-40
2024/03/05 19:10:53;;;;;;;162.10;74.40;;;;;;;1.64;88.24;98723.96;435368;1254;110203;-41
2024/03/05 19:21:00;;;;;;;213.00;86.10;;;;;;;1.52;88.42;98726.17;435248;1253;108044;-41
2024/03/05 19:31:09;;;;;;;242.60;98.30;;;;;;;1.50;88.87;98730.26;435491;1254;98147;-40
2024/03/05 19:41:17;;;;;;;304.80;117.30;;;;;;;1.31;88.43;98729.92;435510;1251;111685;-40
2024/03/05 19:51:24;;;;;;;288.30;114.70;;;;;;;0.95;88.42;98730.52;435446;1254;107302;-39
2024/03/05 20:21:44;;;;;;;259.80;103.10;;;;;;;0.82;88.64;98732.98;435367;1250;107331;-41
2024/03/05 20:42:00;;;;;;;268.60;110.20;;;;;;;0.49;88.48;98736.66;435500;1254;109909;-39
2024/03/05 20:52:07;;;;;;;264.60;107.20;;;;;;;0.25;88.65;98738.67;435428;1254;109489;-39
2024/03/05 21:02:14;;;;;;;201.60;98.00;;;;;;;0.18;88.72;98749.15;435492;1254;97954;-39
2024/03/05 21:12:22;;;;;;;192.00;85.60;;;;;;;0.15;88.49;98754.67;435432;1253;111672;-40
2024/03/05 21:22:29;;;;;;;285.80;111.70;;;;;;;0.12;88.57;98755.40;435293;1254;108241;-41
2024/03/05 21:32:37;;;;;;;321.40;122.70;;;;;;;0.06;88.95;98764.62;435435;1253;97861;-39
2024/03/05 21:42:45;;;;;;;295.90;116.50;;;;;;;0.01;89.11;98777.66;435384;1253;109538;-38
2024/03/05 21:52:54;;;;;;;188.50;92.80;;;;;;;-0.08;89.05;98779.58;435400;1252;108509;-40
2024/03/05 22:03:01;;;;;;;179.80;83.90;;;;;;;0.07;89.15;98778.92;435390;1251;97912;-40
2024/03/05 22:13:08;;;;;;;189.40;85.50;;;;;;;0.23;89.40;98783.85;435339;1254;109945;-40
2024/03/05 22:23:15;;;;;;;228.40;81.60;;;;;;;0.36;89.81;98794.77;435392;1254;108703;-40
2024/03/05 22:33:23;;;;;;;256.30;74.60;;;;;;;0.29;89.53;98803.83;435436;1254;96569;-39
2024/03/05 22:43:30;;;;;;;282.00;72.30;;;;;;;0.08;89.40;98811.08;435391;1252;110733;-38
2024/03/05 23:03:42;;;;;;;73.20;46.00;;;;;;;0.04;89.53;98811.90;435435;1255;97841;-38
2024/03/05 23:13:49;;;;;;;102.60;51.00;;;;;;;0.13;89.70;98815.45;435421;1253;110793;-40
2024/03/05 23:23:57;;;;;;;122.20;56.00;;;;;;;0.00;89.35;98812.73;435268;1250;107687;-39
2024/03/05 23:34:05;;;;;;;154.70;64.60;;;;;;;-0.30;89.29;98818.04;435377;1254;97868;-40
2024/03/05 23:44:13;;;;;;;130.30;58.60;;;;;;;-0.46;89.61;98822.34;435462;1255;110013;-42
2024/03/05 23:54:21;;;;;;;75.20;45.60;;;;;;;-0.50;89.62;98829.78;435447;1253;109547;-39
